Time;durP1;ratioP1;P1;durP2;ratioP2;P2;SDS_P1;SDS_P2;PMS_P1;PMS_P2;Temp;Humidity;BMP_temperature;BMP_pressure;BME280_temperature;BME280_humidity;BME280_pressure;Samples;Min_cycle;Max_cycle;Signal;HPM_P1;HPM_P2
2022/05/19 00:01:07;;;;;;;4.87;3.60;;;;;;;;;;5032757;28;20061;-53
2022/05/19 00:03:35;;;;;;;4.65;3.38;;;;;;;;;;5015731;28;20095;-52
2022/05/19 00:06:01;;;;;;;3.78;3.00;;;;;;;;;;5020371;28;20368;-53
2022/05/19 00:08:26;;;;;;;4.10;3.20;;;;;;;;;;5019073;28;20072;-51
2022/05/19 00:10:52;;;;;;;4.43;3.40;;;;;;;;;;5017968;28;20079;-51
2022/05/19 00:13:17;;;;;;;4.75;3.50;;;;;;;;;;5032132;28;20128;-51
2022/05/19 00:15:42;;;;;;;4.67;3.50;;;;;;;;;;5019267;28;20041;-50
2022/05/19 00:18:07;;;;;;;3.88;2.95;;;;;;;;;;5020067;28;20343;-51
2022/05/19 00:20:33;;;;;;;3.90;2.80;;;;;;;;;;5020337;28;20499;-50
2022/05/19 00:22:58;;;;;;;4.80;2.77;;;;;;;;;;5022255;28;20631;-50
2022/05/19 00:25:23;;;;;;;3.73;2.90;;;;;;;;;;5018379;28;20399;-51
2022/05/19 00:27:48;;;;;;;4.37;3.30;;;;;;;;;;5016704;28;20017;-51
2022/05/19 00:30:14;;;;;;;4.30;3.08;;;;;;;;;;5020607;28;20350;-51
2022/05/19 00:32:39;;;;;;;4.40;3.40;;;;;;;;;;5019174;28;20419;-51
2022/05/19 00:35:04;;;;;;;4.27;2.90;;;;;;;;;;5036623;28;20028;-51
2022/05/19 00:37:30;;;;;;;5.88;3.75;;;;;;;;;;5019757;28;20037;-50
2022/05/19 00:39:55;;;;;;;3.60;3.10;;;;;;;;;;5018406;28;20009;-52
2022/05/19 00:45:04;;;;;;;3.97;2.78;;;;;;;;;;5018716;28;20024;-51
2022/05/19 00:47:33;;;;;;;3.75;2.72;;;;;;;;;;5024614;28;20010;-50
2022/05/19 00:49:58;;;;;;;4.07;3.17;;;;;;;;;;5038262;28;20251;-52
2022/05/19 00:52:39;;;;;;;3.90;2.60;;;;;;;;;;5022475;28;20488;-52
2022/05/19 00:55:06;;;;;;;4.30;3.00;;;;;;;;;;5035754;28;20037;-50
2022/05/19 00:57:31;;;;;;;4.97;3.08;;;;;;;;;;5038208;28;20091;-52
2022/05/19 00:59:58;;;;;;;3.65;2.60;;;;;;;;;;5018815;28;20026;-51
2022/05/19 01:02:24;;;;;;;3.45;2.45;;;;;;;;;;5038677;28;20021;-52
2022/05/19 01:05:19;;;;;;;5.07;2.90;;;;;;;;;;5039995;28;20017;-50
2022/05/19 01:07:51;;;;;;;3.45;2.70;;;;;;;;;;5010148;28;20030;-51
2022/05/19 01:10:16;;;;;;;3.83;2.63;;;;;;;;;;5035124;28;20019;-50
2022/05/19 01:12:44;;;;;;;3.63;2.50;;;;;;;;;;5038173;28;20104;-50
2022/05/19 01:15:09;;;;;;;3.53;2.70;;;;;;;;;;5021812;28;20349;-51
2022/05/19 01:17:34;;;;;;;5.10;2.20;;;;;;;;;;5020758;28;20025;-51
2022/05/19 01:20:00;;;;;;;3.17;2.30;;;;;;;;;;5035974;28;20504;-51
2022/05/19 01:22:40;;;;;;;2.70;2.20;;;;;;;;;;5033155;28;20049;-52
2022/05/19 01:25:08;;;;;;;3.58;2.53;;;;;;;;;;5020508;28;20492;-52
2022/05/19 01:27:33;;;;;;;3.03;2.25;;;;;;;;;;5019891;28;20025;-51
2022/05/19 01:29:58;;;;;;;3.80;2.35;;;;;;;;;;5038040;28;20747;-50
2022/05/19 01:32:26;;;;;;;3.10;2.47;;;;;;;;;;5017474;28;20029;-52
2022/05/19 01:34:52;;;;;;;3.65;2.40;;;;;;;;;;5023305;28;20025;-51
2022/05/19 01:37:17;;;;;;;2.65;2.28;;;;;;;;;;5021749;28;20044;-52
2022/05/19 01:39:44;;;;;;;3.53;2.53;;;;;;;;;;5017370;28;20117;-51
2022/05/19 01:42:15;;;;;;;4.05;2.20;;;;;;;;;;5020449;28;20291;-51
2022/05/19 01:44:50;;;;;;;2.55;1.90;;;;;;;;;;5020716;28;20504;-51
2022/05/19 01:47:22;;;;;;;3.00;2.38;;;;;;;;;;5037655;28;20067;-51
2022/05/19 01:49:47;;;;;;;4.25;2.30;;;;;;;;;;5038333;28;20471;-51
2022/05/19 01:52:15;;;;;;;3.73;2.50;;;;;;;;;;5022112;28;20025;-51
2022/05/19 01:54:46;;;;;;;2.85;2.20;;;;;;;;;;5032098;28;20063;-51
2022/05/19 01:57:32;;;;;;;2.97;2.00;;;;;;;;;;5039627;28;20021;-51
2022/05/19 02:00:16;;;;;;;3.33;2.10;;;;;;;;;;5003049;28;20927;-50
2022/05/19 02:03:02;;;;;;;3.53;2.03;;;;;;;;;;5034421;28;20022;-50
2022/05/19 02:05:40;;;;;;;3.40;1.90;;;;;;;;;;5036131;28;20025;-50
2022/05/19 02:08:06;;;;;;;3.08;2.10;;;;;;;;;;5020077;28;20036;-51
2022/05/19 02:10:32;;;;;;;2.55;2.00;;;;;;;;;;5024220;28;20021;-52
2022/05/19 02:12:58;;;;;;;3.15;2.20;;;;;;;;;;5021292;28;20025;-50
2022/05/19 02:15:24;;;;;;;3.17;1.92;;;;;;;;;;5018774;28;20112;-51
2022/05/19 02:17:49;;;;;;;2.50;1.90;;;;;;;;;;5019808;28;20028;-50
2022/05/19 02:20:15;;;;;;;2.13;1.70;;;;;;;;;;5038656;28;20451;-51
2022/05/19 02:22:42;;;;;;;2.92;1.80;;;;;;;;;;5036200;28;20264;-51
2022/05/19 02:25:19;;;;;;;2.40;1.70;;;;;;;;;;5022121;28;20021;-51
2022/05/19 02:27:57;;;;;;;2.53;1.85;;;;;;;;;;5014377;28;20036;-51
2022/05/19 02:30:23;;;;;;;2.55;1.70;;;;;;;;;;5024007;28;20049;-51
2022/05/19 02:32:48;;;;;;;3.28;1.95;;;;;;;;;;5021520;28;20033;-50
2022/05/19 02:35:13;;;;;;;2.97;1.60;;;;;;;;;;5020249;28;20037;-51
2022/05/19 02:37:39;;;;;;;2.35;1.90;;;;;;;;;;5023499;28;20539;-51
2022/05/19 02:40:04;;;;;;;2.90;1.80;;;;;;;;;;5018496;28;20102;-50
2022/05/19 02:42:30;;;;;;;3.55;1.70;;;;;;;;;;5017172;28;20117;-52
2022/05/19 02:44:55;;;;;;;2.73;1.77;;;;;;;;;;5013088;28;20744;-51
2022/05/19 02:47:20;;;;;;;2.90;2.03;;;;;;;;;;5021993;28;20276;-51
2022/05/19 02:49:45;;;;;;;4.67;1.83;;;;;;;;;;5004438;28;20245;-50
2022/05/19 02:52:10;;;;;;;1.83;1.50;;;;;;;;;;5005093;28;20639;-51
2022/05/19 02:54:36;;;;;;;2.83;1.57;;;;;;;;;;5003620;28;20016;-51
2022/05/19 02:57:01;;;;;;;4.07;1.93;;;;;;;;;;5015432;28;20133;-51
2022/05/19 02:59:26;;;;;;;3.03;1.80;;;;;;;;;;5005816;28;20264;-51
2022/05/19 03:01:51;;;;;;;2.45;1.48;;;;;;;;;;5004648;28;20075;-50
2022/05/19 03:04:17;;;;;;;2.30;1.60;;;;;;;;;;5000709;28;20010;-51
2022/05/19 03:06:42;;;;;;;2.40;1.50;;;;;;;;;;5008066;28;20338;-51
2022/05/19 03:09:08;;;;;;;2.58;1.60;;;;;;;;;;5006511;28;20009;-52
2022/05/19 03:11:34;;;;;;;2.58;1.75;;;;;;;;;;5002250;28;20030;-52
2022/05/19 03:13:59;;;;;;;2.40;1.67;;;;;;;;;;5004225;28;20089;-51
2022/05/19 03:16:24;;;;;;;3.40;1.50;;;;;;;;;;5003183;28;20225;-50
2022/05/19 03:18:49;;;;;;;3.23;1.80;;;;;;;;;;5003764;28;20265;-51
2022/05/19 03:21:14;;;;;;;2.63;1.60;;;;;;;;;;5016093;28;20029;-51
2022/05/19 03:23:40;;;;;;;2.33;1.50;;;;;;;;;;5018498;28;20040;-51
2022/05/19 03:26:05;;;;;;;2.50;1.60;;;;;;;;;;5014634;28;20029;-51
2022/05/19 03:28:30;;;;;;;2.60;1.57;;;;;;;;;;5014781;28;20080;-51
2022/05/19 03:30:55;;;;;;;2.20;1.53;;;;;;;;;;5017386;28;20554;-51
2022/05/19 03:33:20;;;;;;;2.83;1.47;;;;;;;;;;5003538;28;20685;-51
2022/05/19 03:35:54;;;;;;;2.53;1.70;;;;;;;;;;5008485;28;20301;-51
2022/05/19 03:38:19;;;;;;;2.70;1.50;;;;;;;;;;5007789;28;20883;-52
2022/05/19 03:40:44;;;;;;;2.57;1.70;;;;;;;;;;5018970;28;20026;-51
2022/05/19 03:43:10;;;;;;;3.03;1.40;;;;;;;;;;5003286;28;20109;-51
2022/05/19 03:45:35;;;;;;;2.35;1.50;;;;;;;;;;5004021;28;20108;-50
2022/05/19 03:48:01;;;;;;;2.40;1.50;;;;;;;;;;5003401;28;20030;-50
2022/05/19 03:50:26;;;;;;;3.17;1.70;;;;;;;;;;5005179;28;20029;-50
2022/05/19 03:52:51;;;;;;;2.60;1.50;;;;;;;;;;5006643;28;20268;-51
2022/05/19 03:55:16;;;;;;;1.97;1.40;;;;;;;;;;5021279;28;20033;-51
2022/05/19 03:57:42;;;;;;;2.90;1.65;;;;;;;;;;5005156;28;20030;-49
2022/05/19 04:00:07;;;;;;;2.72;1.33;;;;;;;;;;5006163;28;20113;-52
2022/05/19 04:02:32;;;;;;;2.22;1.40;;;;;;;;;;5001537;28;20021;-51
2022/05/19 04:04:58;;;;;;;3.20;1.60;;;;;;;;;;5003999;28;20033;-50
2022/05/19 04:07:23;;;;;;;2.80;1.80;;;;;;;;;;5005651;28;20067;-51
2022/05/19 04:09:48;;;;;;;3.13;1.57;;;;;;;;;;5010275;28;20025;-51
2022/05/19 04:12:17;;;;;;;2.17;1.60;;;;;;;;;;5020101;28;20260;-50
2022/05/19 04:14:43;;;;;;;2.28;1.58;;;;;;;;;;5008764;28;22173;-50
2022/05/19 04:17:08;;;;;;;2.30;1.37;;;;;;;;;;5004233;28;20071;-51
2022/05/19 04:19:35;;;;;;;1.90;1.48;;;;;;;;;;5019408;28;20071;-51
2022/05/19 04:22:01;;;;;;;1.95;1.17;;;;;;;;;;5008974;28;20017;-51
2022/05/19 04:24:26;;;;;;;1.90;1.40;;;;;;;;;;5010059;28;20033;-51
2022/05/19 04:26:51;;;;;;;2.70;1.40;;;;;;;;;;5006198;28;20029;-52
2022/05/19 04:29:17;;;;;;;2.80;1.55;;;;;;;;;;5016829;28;20061;-51
2022/05/19 04:31:42;;;;;;;2.40;1.60;;;;;;;;;;5007868;28;20075;-52
2022/05/19 04:34:07;;;;;;;2.53;1.23;;;;;;;;;;5019998;28;20551;-51
2022/05/19 04:36:32;;;;;;;2.43;1.67;;;;;;;;;;5023496;28;20030;-50
2022/05/19 04:38:58;;;;;;;2.67;1.70;;;;;;;;;;5016426;28;20265;-52
2022/05/19 04:41:23;;;;;;;4.23;1.80;;;;;;;;;;5012884;28;20832;-51
2022/05/19 04:43:48;;;;;;;2.77;1.70;;;;;;;;;;5006542;28;20076;-51
2022/05/19 04:46:13;;;;;;;3.60;1.70;;;;;;;;;;5013996;28;20484;-51
2022/05/19 04:48:38;;;;;;;2.93;1.90;;;;;;;;;;5007836;28;20555;-51
2022/05/19 04:51:04;;;;;;;3.10;1.90;;;;;;;;;;5005204;28;20357;-50
2022/05/19 04:53:30;;;;;;;3.10;1.70;;;;;;;;;;5007797;28;20479;-51
2022/05/19 04:55:55;;;;;;;3.88;1.88;;;;;;;;;;5022608;28;20132;-53
2022/05/19 04:58:20;;;;;;;3.15;2.08;;;;;;;;;;5019299;28;20074;-51
2022/05/19 05:00:46;;;;;;;4.90;2.63;;;;;;;;;;5021308;28;20472;-51
2022/05/19 05:03:12;;;;;;;4.32;2.28;;;;;;;;;;5021610;28;20838;-51
2022/05/19 05:05:37;;;;;;;3.23;2.30;;;;;;;;;;5017413;28;20542;-52
2022/05/19 05:08:02;;;;;;;5.63;2.30;;;;;;;;;;5019132;28;20280;-51
2022/05/19 05:10:27;;;;;;;3.80;2.53;;;;;;;;;;5020947;28;20012;-51
2022/05/19 05:12:52;;;;;;;3.03;2.50;;;;;;;;;;5009606;28;20025;-50
2022/05/19 05:15:18;;;;;;;3.53;2.50;;;;;;;;;;5012251;28;20088;-51
2022/05/19 05:17:43;;;;;;;3.70;2.70;;;;;;;;;;5005724;28;20022;-51
2022/05/19 05:20:08;;;;;;;3.90;2.83;;;;;;;;;;5004912;28;20799;-51
2022/05/19 05:22:37;;;;;;;4.43;2.60;;;;;;;;;;5007378;28;20311;-51
2022/05/19 05:25:03;;;;;;;3.25;2.80;;;;;;;;;;5013324;28;20026;-51
2022/05/19 05:27:28;;;;;;;4.50;2.80;;;;;;;;;;5014102;28;20020;-51
2022/05/19 05:29:53;;;;;;;5.63;3.00;;;;;;;;;;5017417;28;20428;-53
2022/05/19 05:32:19;;;;;;;3.53;2.70;;;;;;;;;;5012018;28;20026;-52
2022/05/19 05:34:44;;;;;;;3.97;2.40;;;;;;;;;;5003448;28;20269;-51
2022/05/19 05:37:09;;;;;;;3.67;2.83;;;;;;;;;;5009500;28;20057;-51
2022/05/19 05:39:34;;;;;;;4.82;2.78;;;;;;;;;;5036666;28;20068;-51
2022/05/19 05:41:59;;;;;;;5.43;3.30;;;;;;;;;;5013869;28;20033;-51
2022/05/19 05:44:25;;;;;;;3.43;2.90;;;;;;;;;;5019933;28;20030;-51
2022/05/19 05:46:50;;;;;;;4.97;3.03;;;;;;;;;;5037524;28;20025;-51
2022/05/19 05:49:15;;;;;;;3.30;2.83;;;;;;;;;;5023312;28;20467;-52
2022/05/19 05:51:40;;;;;;;5.13;3.30;;;;;;;;;;5019258;28;20025;-52
2022/05/19 05:54:06;;;;;;;5.03;3.17;;;;;;;;;;5020553;28;20367;-51
2022/05/19 05:56:31;;;;;;;5.07;3.40;;;;;;;;;;5020250;28;20299;-51
2022/05/19 05:58:56;;;;;;;4.33;3.10;;;;;;;;;;5021348;28;20422;-52
2022/05/19 06:01:22;;;;;;;4.77;3.47;;;;;;;;;;5008772;28;20304;-51
2022/05/19 06:03:48;;;;;;;4.68;2.97;;;;;;;;;;5018882;28;20268;-53
2022/05/19 06:06:13;;;;;;;5.70;3.28;;;;;;;;;;5017958;28;20018;-51
2022/05/19 06:08:38;;;;;;;3.80;3.10;;;;;;;;;;5007075;28;20018;-51
2022/05/19 06:11:06;;;;;;;5.07;3.67;;;;;;;;;;5010066;28;20735;-51
2022/05/19 06:13:31;;;;;;;6.10;3.40;;;;;;;;;;5013356;28;20264;-53
2022/05/19 06:15:56;;;;;;;9.73;3.50;;;;;;;;;;5009976;28;20412;-53
2022/05/19 06:18:22;;;;;;;3.60;2.87;;;;;;;;;;5018128;28;20440;-52
2022/05/19 06:20:47;;;;;;;3.90;2.80;;;;;;;;;;5018485;28;20059;-51
2022/05/19 06:23:12;;;;;;;3.97;3.17;;;;;;;;;;5022694;28;20021;-52
2022/05/19 06:25:38;;;;;;;4.88;2.97;;;;;;;;;;5021599;28;20546;-52
2022/05/19 06:28:03;;;;;;;4.83;3.17;;;;;;;;;;5016190;28;20480;-51
2022/05/19 06:30:28;;;;;;;6.43;2.67;;;;;;;;;;5005803;28;20350;-52
2022/05/19 06:32:54;;;;;;;3.88;2.80;;;;;;;;;;5007221;28;20025;-51
2022/05/19 06:35:20;;;;;;;5.30;2.83;;;;;;;;;;5022797;28;20041;-51
2022/05/19 06:37:47;;;;;;;4.18;2.95;;;;;;;;;;5015469;28;20259;-51
2022/05/19 06:40:15;;;;;;;5.10;3.30;;;;;;;;;;5019023;28;21131;-51
2022/05/19 06:42:40;;;;;;;4.70;2.80;;;;;;;;;;5020332;28;20423;-50
2022/05/19 06:45:05;;;;;;;5.25;2.80;;;;;;;;;;5017833;28;20034;-51
2022/05/19 06:47:31;;;;;;;4.43;3.00;;;;;;;;;;5006605;28;20463;-51
2022/05/19 06:49:56;;;;;;;4.47;3.00;;;;;;;;;;5010587;28;20048;-50
2022/05/19 06:52:26;;;;;;;3.90;2.85;;;;;;;;;;5009224;28;20052;-51
2022/05/19 06:54:52;;;;;;;4.65;3.05;;;;;;;;;;5005817;28;20049;-52
2022/05/19 06:57:17;;;;;;;3.85;2.88;;;;;;;;;;5011941;28;20131;-51
2022/05/19 06:59:43;;;;;;;4.05;2.80;;;;;;;;;;4992486;28;20029;-51
2022/05/19 07:02:09;;;;;;;4.68;2.53;;;;;;;;;;5008853;28;20028;-52
2022/05/19 07:04:34;;;;;;;3.97;2.70;;;;;;;;;;5010697;28;20025;-50
2022/05/19 07:07:00;;;;;;;3.47;2.65;;;;;;;;;;5011976;28;20038;-54
2022/05/19 07:09:25;;;;;;;4.43;2.60;;;;;;;;;;5017326;28;20009;-51
2022/05/19 07:11:50;;;;;;;3.90;3.00;;;;;;;;;;5020185;28;20017;-51
2022/05/19 07:14:15;;;;;;;4.00;2.50;;;;;;;;;;5007122;28;20026;-51
2022/05/19 07:16:43;;;;;;;3.55;2.50;;;;;;;;;;5008533;28;20124;-51
2022/05/19 07:21:54;;;;;;;5.00;2.10;;;;;;;;;;5000214;28;20037;-51
2022/05/19 07:24:20;;;;;;;4.15;2.17;;;;;;;;;;5005223;28;20060;-52
2022/05/19 07:26:47;;;;;;;3.65;2.17;;;;;;;;;;5002233;28;20481;-51
2022/05/19 07:29:12;;;;;;;4.57;2.40;;;;;;;;;;5005495;28;20662;-51
2022/05/19 07:31:37;;;;;;;4.60;2.40;;;;;;;;;;5004387;28;20091;-52
2022/05/19 07:34:05;;;;;;;4.25;2.35;;;;;;;;;;5005692;28;20025;-52
2022/05/19 07:36:32;;;;;;;3.47;2.67;;;;;;;;;;5019295;28;20030;-52
2022/05/19 07:38:59;;;;;;;3.60;2.20;;;;;;;;;;5006352;28;20057;-50
2022/05/19 07:41:25;;;;;;;4.75;2.45;;;;;;;;;;5004698;28;20030;-52
2022/05/19 07:43:52;;;;;;;4.93;2.47;;;;;;;;;;5009107;28;20550;-52
2022/05/19 07:46:18;;;;;;;5.13;2.33;;;;;;;;;;5016008;28;20111;-52
2022/05/19 07:48:43;;;;;;;5.00;2.30;;;;;;;;;;5011133;28;20385;-52
2022/05/19 07:51:08;;;;;;;5.67;2.63;;;;;;;;;;5016518;28;20108;-53
2022/05/19 07:53:34;;;;;;;3.57;2.20;;;;;;;;;;5028589;28;20727;-52
2022/05/19 07:55:59;;;;;;;4.20;2.27;;;;;;;;;;5005933;28;20524;-51
2022/05/19 07:58:24;;;;;;;6.15;2.10;;;;;;;;;;5009080;28;20507;-52
2022/05/19 08:00:51;;;;;;;5.53;1.93;;;;;;;;;;5025759;28;20022;-53
2022/05/19 08:03:16;;;;;;;4.43;1.98;;;;;;;;;;5009156;28;20836;-51
2022/05/19 08:05:42;;;;;;;3.72;1.88;;;;;;;;;;5006053;28;20037;-52
2022/05/19 08:08:07;;;;;;;3.22;2.00;;;;;;;;;;5006947;28;20413;-51
2022/05/19 08:10:32;;;;;;;3.80;1.58;;;;;;;;;;5027553;28;20467;-53
2022/05/19 08:15:42;;;;;;;4.30;1.73;;;;;;;;;;5007436;28;20067;-52
2022/05/19 08:18:07;;;;;;;3.22;1.83;;;;;;;;;;5008589;28;20607;-52
2022/05/19 08:20:33;;;;;;;4.18;1.80;;;;;;;;;;5013016;28;20112;-52
2022/05/19 08:22:58;;;;;;;3.67;1.80;;;;;;;;;;5021922;28;20055;-52
2022/05/19 08:25:27;;;;;;;3.00;1.77;;;;;;;;;;5022680;28;20053;-52
2022/05/19 08:27:53;;;;;;;4.03;2.08;;;;;;;;;;5017014;28;20345;-52
2022/05/19 08:30:18;;;;;;;3.00;1.92;;;;;;;;;;5016648;28;20034;-52
2022/05/19 08:32:43;;;;;;;3.53;1.85;;;;;;;;;;5023245;28;20024;-51
2022/05/19 08:35:09;;;;;;;4.17;1.90;;;;;;;;;;5018884;28;20026;-52
2022/05/19 08:37:34;;;;;;;3.58;1.90;;;;;;;;;;5025615;28;20041;-51
2022/05/19 08:39:59;;;;;;;4.00;1.98;;;;;;;;;;5018520;28;20032;-52
2022/05/19 08:42:25;;;;;;;5.47;1.80;;;;;;;;;;5025544;28;20104;-52
2022/05/19 08:44:52;;;;;;;3.22;1.63;;;;;;;;;;5037201;28;20113;-52
2022/05/19 08:47:20;;;;;;;2.30;1.67;;;;;;;;;;5019798;28;21032;-51
2022/05/19 08:49:50;;;;;;;4.45;1.63;;;;;;;;;;5036366;28;20021;-51
2022/05/19 08:52:17;;;;;;;5.05;1.67;;;;;;;;;;5036748;28;20051;-50
2022/05/19 08:54:43;;;;;;;3.92;2.00;;;;;;;;;;5021578;28;20044;-51
2022/05/19 08:57:16;;;;;;;3.13;1.58;;;;;;;;;;5020905;28;20044;-51
2022/05/19 08:59:47;;;;;;;3.08;1.58;;;;;;;;;;5021822;28;20108;-51
2022/05/19 09:02:16;;;;;;;3.15;1.52;;;;;;;;;;5020102;28;20025;-51
2022/05/19 09:04:47;;;;;;;3.58;1.83;;;;;;;;;;5011248;28;20137;-51
2022/05/19 09:10:22;;;;;;;4.93;1.77;;;;;;;;;;5034099;28;20040;-50
2022/05/19 09:12:48;;;;;;;2.90;1.52;;;;;;;;;;5022713;28;20018;-52
2022/05/19 09:15:13;;;;;;;2.65;1.42;;;;;;;;;;5023377;28;20056;-51
2022/05/19 09:17:40;;;;;;;2.88;1.50;;;;;;;;;;5006402;28;20206;-50
2022/05/19 09:20:07;;;;;;;5.88;1.50;;;;;;;;;;5012998;28;20693;-53
2022/05/19 09:22:35;;;;;;;4.63;1.70;;;;;;;;;;5015285;28;20476;-51
2022/05/19 09:25:13;;;;;;;2.30;1.10;;;;;;;;;;5009017;28;20026;-51
2022/05/19 09:27:40;;;;;;;5.22;1.20;;;;;;;;;;5009295;28;20083;-50
2022/05/19 09:30:07;;;;;;;2.97;1.05;;;;;;;;;;5021750;28;20140;-51
2022/05/19 09:32:37;;;;;;;2.40;0.90;;;;;;;;;;5010749;28;20106;-52
2022/05/19 09:35:13;;;;;;;2.75;1.42;;;;;;;;;;5006985;28;20021;-51
2022/05/19 09:37:45;;;;;;;3.20;1.10;;;;;;;;;;5035851;28;20110;-51
2022/05/19 09:40:10;;;;;;;3.38;1.20;;;;;;;;;;5016887;28;20029;-51
2022/05/19 09:42:38;;;;;;;2.83;0.80;;;;;;;;;;5022080;28;20033;-51
2022/05/19 09:45:04;;;;;;;1.60;0.85;;;;;;;;;;5036050;28;20056;-51
2022/05/19 09:47:30;;;;;;;2.90;0.88;;;;;;;;;;5022643;28;21079;-53
2022/05/19 09:50:00;;;;;;;2.70;1.02;;;;;;;;;;5017471;28;20610;-51
2022/05/19 09:52:26;;;;;;;5.93;1.20;;;;;;;;;;5019787;28;20454;-51
2022/05/19 09:54:52;;;;;;;2.97;1.00;;;;;;;;;;5013980;28;20045;-51
2022/05/19 09:57:20;;;;;;;3.00;1.00;;;;;;;;;;5015111;28;20138;-51
2022/05/19 09:59:49;;;;;;;4.13;0.85;;;;;;;;;;5017129;28;20536;-51
2022/05/19 10:02:17;;;;;;;1.85;0.90;;;;;;;;;;5016937;28;20021;-51
2022/05/19 10:04:49;;;;;;;3.08;1.23;;;;;;;;;;5018054;28;20518;-51
2022/05/19 10:07:23;;;;;;;2.17;1.05;;;;;;;;;;5019431;28;20572;-52
2022/05/19 10:09:49;;;;;;;2.88;0.82;;;;;;;;;;5028686;28;20026;-51
2022/05/19 10:12:18;;;;;;;2.90;1.00;;;;;;;;;;5033566;28;20021;-52
2022/05/19 10:14:44;;;;;;;3.05;1.23;;;;;;;;;;5027625;28;20131;-52
2022/05/19 10:17:09;;;;;;;2.70;1.08;;;;;;;;;;5016466;28;20531;-51
2022/05/19 10:19:37;;;;;;;5.40;1.10;;;;;;;;;;5019885;28;20025;-51
2022/05/19 10:22:14;;;;;;;2.08;0.80;;;;;;;;;;5021388;28;20028;-51
2022/05/19 10:24:39;;;;;;;1.88;1.00;;;;;;;;;;5008233;28;20032;-50
2022/05/19 10:33:01;;;;;;;2.70;1.10;;;;;;;;;;5033289;28;20083;-52
2022/05/19 10:35:37;;;;;;;2.30;1.20;;;;;;;;;;5020583;28;20045;-52
2022/05/19 10:38:09;;;;;;;2.78;1.15;;;;;;;;;;5029796;28;20021;-51
2022/05/19 10:40:43;;;;;;;1.83;1.00;;;;;;;;;;5030215;28;20534;-51
2022/05/19 10:43:09;;;;;;;3.47;1.30;;;;;;;;;;5019124;28;20018;-51
2022/05/19 10:45:36;;;;;;;2.17;1.00;;;;;;;;;;5015341;28;20017;-50
2022/05/19 10:48:04;;;;;;;2.40;1.10;;;;;;;;;;5030670;28;20013;-52
2022/05/19 10:50:30;;;;;;;2.63;1.17;;;;;;;;;;5040506;28;20037;-51
2022/05/19 10:53:05;;;;;;;1.70;1.20;;;;;;;;;;5017455;28;20013;-51
2022/05/19 10:55:40;;;;;;;2.17;1.02;;;;;;;;;;5019885;28;20477;-51
2022/05/19 10:58:12;;;;;;;2.17;1.30;;;;;;;;;;5010400;28;20092;-51
2022/05/19 11:01:01;;;;;;;1.73;1.05;;;;;;;;;;5003884;28;20104;-51
2022/05/19 11:03:41;;;;;;;4.03;1.35;;;;;;;;;;5019317;28;20052;-51
2022/05/19 11:06:09;;;;;;;2.78;1.33;;;;;;;;;;5005657;28;20032;-51
2022/05/19 11:08:39;;;;;;;3.53;1.30;;;;;;;;;;5006409;28;20017;-51
2022/05/19 11:11:17;;;;;;;2.60;1.40;;;;;;;;;;5005966;28;20037;-52
2022/05/19 11:13:45;;;;;;;2.05;1.20;;;;;;;;;;5004814;28;20114;-50
2022/05/19 11:16:26;;;;;;;2.17;1.30;;;;;;;;;;5008493;28;20083;-51
2022/05/19 11:18:55;;;;;;;1.90;1.30;;;;;;;;;;5005014;28;20029;-53
2022/05/19 11:21:23;;;;;;;2.65;1.58;;;;;;;;;;5006931;28;20664;-52
2022/05/19 11:23:51;;;;;;;2.92;1.48;;;;;;;;;;5004857;28;20172;-52
2022/05/19 11:26:35;;;;;;;4.55;1.35;;;;;;;;;;5003384;28;20052;-53
2022/05/19 11:29:06;;;;;;;4.05;1.58;;;;;;;;;;5002823;28;20126;-51
2022/05/19 11:31:50;;;;;;;3.67;1.58;;;;;;;;;;5004173;28;20026;-51
2022/05/19 11:34:20;;;;;;;4.65;1.42;;;;;;;;;;5014731;28;20447;-53
2022/05/19 11:36:45;;;;;;;;;;;;;;;;;;5014772;28;20027;-49
2022/05/19 11:39:17;;;;;;;1.87;1.30;;;;;;;;;;5015147;28;19909;-52
2022/05/19 11:41:42;;;;;;;2.50;1.60;;;;;;;;;;5007848;28;20021;-52
2022/05/19 11:44:19;;;;;;;2.83;1.40;;;;;;;;;;5024922;28;20018;-52
2022/05/19 11:46:56;;;;;;;2.08;1.20;;;;;;;;;;5011577;28;20504;-52
2022/05/19 11:55:13;;;;;;;2.30;1.55;;;;;;;;;;5011208;28;20111;-51
2022/05/19 11:57:42;;;;;;;2.75;1.40;;;;;;;;;;5021879;28;21001;-51
2022/05/19 12:00:08;;;;;;;2.73;1.67;;;;;;;;;;5012473;28;20517;-51
2022/05/19 12:02:37;;;;;;;2.58;1.65;;;;;;;;;;5024405;28;20068;-52
2022/05/19 12:05:10;;;;;;;2.38;1.35;;;;;;;;;;5011032;28;20010;-51
2022/05/19 12:08:04;;;;;;;3.13;1.50;;;;;;;;;;5028488;28;20576;-51
2022/05/19 12:10:36;;;;;;;2.78;1.20;;;;;;;;;;5013623;28;20107;-51
2022/05/19 12:13:03;;;;;;;2.53;1.70;;;;;;;;;;5014748;28;20052;-52
2022/05/19 12:15:35;;;;;;;1.73;1.30;;;;;;;;;;5005948;28;20246;-51
2022/05/19 12:18:01;;;;;;;2.50;1.60;;;;;;;;;;5010530;28;20033;-52
2022/05/19 12:20:34;;;;;;;2.45;1.55;;;;;;;;;;5024010;28;20021;-51
2022/05/19 12:23:08;;;;;;;2.55;1.50;;;;;;;;;;5012587;28;20043;-51
2022/05/19 12:25:34;;;;;;;2.00;1.48;;;;;;;;;;5014394;28;20503;-50
2022/05/19 12:27:59;;;;;;;2.38;1.50;;;;;;;;;;5009749;28;20034;-51
2022/05/19 12:33:24;;;;;;;2.33;1.20;;;;;;;;;;5007889;28;20457;-50
2022/05/19 12:35:52;;;;;;;1.83;1.20;;;;;;;;;;5017160;28;20095;-50
2022/05/19 12:38:29;;;;;;;2.30;1.20;;;;;;;;;;5006243;28;20393;-51
2022/05/19 12:40:55;;;;;;;3.97;1.63;;;;;;;;;;5005971;28;19998;-50
2022/05/19 12:43:21;;;;;;;5.65;1.50;;;;;;;;;;5009260;28;20057;-51
2022/05/19 12:45:51;;;;;;;1.50;1.25;;;;;;;;;;5017339;28;20025;-51
2022/05/19 12:48:16;;;;;;;5.68;1.20;;;;;;;;;;5018245;28;20029;-51
2022/05/19 12:50:47;;;;;;;2.97;1.57;;;;;;;;;;5011046;28;20064;-51
2022/05/19 12:53:39;;;;;;;3.00;1.60;;;;;;;;;;5010262;28;20273;-50
2022/05/19 12:56:04;;;;;;;3.28;1.60;;;;;;;;;;5013775;28;20555;-51
2022/05/19 12:58:33;;;;;;;2.97;1.50;;;;;;;;;;5005979;28;20025;-51
2022/05/19 13:01:07;;;;;;;2.35;1.52;;;;;;;;;;5012128;28;20033;-51
2022/05/19 13:03:33;;;;;;;2.60;1.20;;;;;;;;;;5023498;28;20060;-50
2022/05/19 13:05:59;;;;;;;4.82;1.67;;;;;;;;;;5029101;28;20037;-51
2022/05/19 13:08:32;;;;;;;3.13;1.58;;;;;;;;;;5012920;28;20496;-51
2022/05/19 13:10:57;;;;;;;2.78;1.40;;;;;;;;;;5015792;28;20475;-50
2022/05/19 13:13:26;;;;;;;3.70;1.77;;;;;;;;;;5014011;28;20108;-51
2022/05/19 13:15:55;;;;;;;3.57;1.40;;;;;;;;;;5014328;28;20044;-51
2022/05/19 13:18:40;;;;;;;3.42;1.55;;;;;;;;;;5019229;28;20025;-51
2022/05/19 13:21:07;;;;;;;3.15;1.45;;;;;;;;;;5006471;28;20014;-49
2022/05/19 13:23:32;;;;;;;4.90;1.40;;;;;;;;;;5013278;28;20040;-52
2022/05/19 13:26:03;;;;;;;3.60;1.23;;;;;;;;;;5020140;28;20029;-51
2022/05/19 13:31:19;;;;;;;2.70;1.45;;;;;;;;;;5012124;28;20111;-51
2022/05/19 13:33:46;;;;;;;4.00;1.65;;;;;;;;;;5006457;28;20677;-50
2022/05/19 13:36:12;;;;;;;2.08;1.25;;;;;;;;;;5022696;28;20029;-50
2022/05/19 13:38:38;;;;;;;5.53;1.35;;;;;;;;;;5014798;28;20025;-51
2022/05/19 13:41:03;;;;;;;1.60;1.07;;;;;;;;;;5009992;28;20053;-51
2022/05/19 13:43:36;;;;;;;2.75;1.20;;;;;;;;;;5019056;28;20040;-51
2022/05/19 13:46:05;;;;;;;3.13;1.10;;;;;;;;;;5019719;28;20043;-51
2022/05/19 13:48:33;;;;;;;1.88;1.10;;;;;;;;;;5018006;28;20338;-51
2022/05/19 13:51:02;;;;;;;2.88;1.27;;;;;;;;;;5021372;28;20052;-50
2022/05/19 13:53:27;;;;;;;1.20;1.00;;;;;;;;;;5022841;28;20013;-51
2022/05/19 13:55:54;;;;;;;4.23;1.40;;;;;;;;;;5038423;28;20040;-51
2022/05/19 13:58:21;;;;;;;1.70;1.10;;;;;;;;;;5018443;28;20268;-51
2022/05/19 14:00:46;;;;;;;3.17;1.08;;;;;;;;;;5017033;28;20113;-51
2022/05/19 14:03:12;;;;;;;2.30;1.10;;;;;;;;;;5017920;28;20013;-50
2022/05/19 14:05:38;;;;;;;4.38;1.15;;;;;;;;;;5007426;28;20113;-51
2022/05/19 14:08:10;;;;;;;2.88;1.30;;;;;;;;;;5006335;28;20113;-51
2022/05/19 14:10:42;;;;;;;3.03;1.30;;;;;;;;;;5005928;28;20025;-51
2022/05/19 14:13:07;;;;;;;2.83;1.20;;;;;;;;;;5005636;28;20092;-51
2022/05/19 14:15:48;;;;;;;2.50;1.30;;;;;;;;;;5003976;28;20037;-50
2022/05/19 14:18:14;;;;;;;2.50;1.25;;;;;;;;;;5009201;28;20025;-51
2022/05/19 14:20:46;;;;;;;2.85;1.30;;;;;;;;;;5010520;28;20022;-50
2022/05/19 14:23:17;;;;;;;1.98;1.15;;;;;;;;;;5005330;28;20017;-51
2022/05/19 14:25:42;;;;;;;2.88;1.40;;;;;;;;;;5028772;28;20034;-51
2022/05/19 14:28:16;;;;;;;2.17;1.30;;;;;;;;;;5003133;28;20022;-52
2022/05/19 14:30:41;;;;;;;3.33;1.20;;;;;;;;;;5010240;28;20038;-51
2022/05/19 14:33:07;;;;;;;2.40;1.35;;;;;;;;;;5008835;28;20032;-51
2022/05/19 14:35:49;;;;;;;3.58;1.33;;;;;;;;;;5006376;28;20104;-51
2022/05/19 14:38:17;;;;;;;2.30;1.20;;;;;;;;;;5004793;28;20033;-51
2022/05/19 14:43:27;;;;;;;1.83;1.10;;;;;;;;;;5006839;28;20112;-51
2022/05/19 14:45:53;;;;;;;1.98;1.38;;;;;;;;;;5011189;28;20108;-51
2022/05/19 14:48:28;;;;;;;2.22;1.25;;;;;;;;;;5010462;28;20017;-51
2022/05/19 14:50:54;;;;;;;2.72;1.40;;;;;;;;;;5009263;28;20473;-51
2022/05/19 14:53:23;;;;;;;1.80;1.05;;;;;;;;;;5029438;28;20014;-51
2022/05/19 14:56:06;;;;;;;1.90;1.30;;;;;;;;;;5018915;28;20030;-51
2022/05/19 14:58:52;;;;;;;1.65;0.93;;;;;;;;;;5021833;28;20108;-50
2022/05/19 15:01:17;;;;;;;3.15;1.30;;;;;;;;;;5017886;28;20105;-50
2022/05/19 15:03:43;;;;;;;3.00;1.33;;;;;;;;;;5008817;28;20124;-50
2022/05/19 15:06:08;;;;;;;3.20;1.25;;;;;;;;;;5018740;28;20467;-51
2022/05/19 15:08:33;;;;;;;3.20;1.40;;;;;;;;;;5038071;28;20044;-51
2022/05/19 15:10:58;;;;;;;2.63;1.30;;;;;;;;;;5021716;28;20295;-50
2022/05/19 15:13:24;;;;;;;11.73;1.40;;;;;;;;;;5014969;28;20020;-51
2022/05/19 15:15:49;;;;;;;2.13;1.00;;;;;;;;;;5019816;28;20029;-50
2022/05/19 15:18:14;;;;;;;2.20;1.27;;;;;;;;;;5018330;28;20284;-50